Time;durP1;ratioP1;P1;durP2;ratioP2;P2;SDS_P1;SDS_P2;PMS_P1;PMS_P2;Temp;Humidity;BMP_temperature;BMP_pressure;BME280_temperature;BME280_humidity;BME280_pressure;Samples;Min_cycle;Max_cycle;Signal;HPM_P1;HPM_P2
2023/10/26 00:01:20;;;;;;;29.80;18.23;;;;;;;10.33;94.30;98686.81;5051736;28;20218;-64
2023/10/26 00:03:48;;;;;;;34.03;19.13;;;;;;;10.33;94.48;98673.94;5049503;28;20218;-60
2023/10/26 00:06:16;;;;;;;35.63;18.27;;;;;;;10.37;94.33;98678.09;5054448;28;20314;-63
2023/10/26 00:08:46;;;;;;;30.90;18.40;;;;;;;10.40;94.54;98670.25;5055728;28;20205;-61
2023/10/26 00:11:13;;;;;;;34.27;19.60;;;;;;;10.42;94.83;98678.78;5053190;28;20202;-62
2023/10/26 00:13:41;;;;;;;35.70;18.90;;;;;;;10.42;94.73;98673.66;5060164;28;20686;-66
2023/10/26 00:16:10;;;;;;;34.67;19.47;;;;;;;10.42;94.99;98667.63;5053343;28;20265;-61
2023/10/26 00:18:38;;;;;;;40.50;20.37;;;;;;;10.42;95.05;98668.50;5057852;28;20691;-59
2023/10/26 00:21:06;;;;;;;38.17;20.27;;;;;;;10.41;95.32;98661.63;5046681;28;20210;-61
2023/10/26 00:23:34;;;;;;;35.20;19.53;;;;;;;10.41;95.21;98656.50;5050570;28;20210;-62
2023/10/26 00:26:03;;;;;;;34.90;19.20;;;;;;;10.42;95.70;98653.03;5048370;28;20240;-61
2023/10/26 00:28:31;;;;;;;34.43;19.70;;;;;;;10.44;95.70;98651.25;5050028;28;20236;-60
2023/10/26 00:30:59;;;;;;;35.60;19.30;;;;;;;10.48;96.05;98649.41;5049876;28;20238;-62
2023/10/26 00:33:27;;;;;;;36.03;18.60;;;;;;;10.53;95.56;98650.09;5056287;28;20205;-66
2023/10/26 00:35:55;;;;;;;38.30;20.67;;;;;;;10.56;95.46;98639.69;5037329;28;20665;-60
2023/10/26 00:38:23;;;;;;;36.87;20.27;;;;;;;10.59;95.90;98634.44;5046603;28;20661;-59
2023/10/26 00:40:51;;;;;;;33.83;20.03;;;;;;;10.63;95.44;98634.25;5047476;28;20213;-60
2023/10/26 00:43:25;;;;;;;31.80;17.73;;;;;;;10.64;95.05;98635.97;5057908;28;20229;-61
2023/10/26 00:45:53;;;;;;;35.47;20.07;;;;;;;10.65;95.14;98634.22;5061927;28;20198;-60
2023/10/26 00:48:22;;;;;;;31.70;18.57;;;;;;;10.67;95.11;98632.44;5060623;28;20255;-60
2023/10/26 00:50:50;;;;;;;32.33;18.63;;;;;;;10.69;95.08;98628.06;5055479;28;20205;-62
2023/10/26 00:53:19;;;;;;;36.17;20.60;;;;;;;10.72;95.12;98634.88;5057491;28;20214;-62
2023/10/26 00:55:50;;;;;;;30.30;18.23;;;;;;;10.73;94.85;98621.09;5050596;28;20564;-64
2023/10/26 00:58:19;;;;;;;35.07;20.03;;;;;;;10.72;94.62;98624.56;5052320;28;20212;-61
2023/10/26 01:00:48;;;;;;;32.57;18.40;;;;;;;10.71;94.63;98620.28;5049086;28;20623;-62
2023/10/26 01:03:16;;;;;;;34.83;18.90;;;;;;;10.67;94.65;98609.25;5054695;28;20562;-62
2023/10/26 01:05:47;;;;;;;34.40;19.00;;;;;;;10.65;94.62;98616.19;5056774;28;20239;-63
2023/10/26 01:08:15;;;;;;;38.97;19.80;;;;;;;10.62;94.85;98622.28;5055957;28;20198;-65
2023/10/26 01:10:43;;;;;;;37.17;20.30;;;;;;;10.63;94.92;98616.25;5053154;28;20624;-64
2023/10/26 01:13:11;;;;;;;36.90;19.53;;;;;;;10.64;94.97;98617.94;5052258;28;20202;-63
2023/10/26 01:15:39;;;;;;;33.03;17.93;;;;;;;10.66;94.96;98615.28;5050817;28;20737;-62
2023/10/26 01:18:09;;;;;;;37.97;19.47;;;;;;;10.67;94.98;98614.41;5051587;28;20213;-61
2023/10/26 01:20:41;;;;;;;31.07;18.83;;;;;;;10.67;94.87;98613.56;5051481;28;20201;-61
2023/10/26 01:23:11;;;;;;;35.70;20.20;;;;;;;10.69;95.41;98620.34;5050916;28;20221;-61
2023/10/26 01:25:39;;;;;;;38.60;20.87;;;;;;;10.71;94.94;98615.13;5051533;28;20194;-61
2023/10/26 01:28:07;;;;;;;35.70;20.40;;;;;;;10.74;95.18;98618.44;5050757;28;20252;-61
2023/10/26 01:30:36;;;;;;;35.33;20.40;;;;;;;10.75;94.57;98617.56;5049024;28;20721;-63
2023/10/26 01:33:03;;;;;;;39.40;19.43;;;;;;;10.77;94.92;98617.50;5049853;28;20232;-63
2023/10/26 01:35:38;;;;;;;38.23;21.27;;;;;;;10.75;94.56;98614.13;5049863;28;20233;-61
2023/10/26 01:38:06;;;;;;;35.00;20.60;;;;;;;10.73;94.52;98616.78;5051059;28;20208;-64
2023/10/26 01:40:35;;;;;;;41.60;21.13;;;;;;;10.71;94.83;98617.72;5054336;28;20206;-62
2023/10/26 01:43:03;;;;;;;38.63;20.97;;;;;;;10.66;95.28;98615.28;5056020;28;20217;-64
2023/10/26 01:45:31;;;;;;;40.00;21.40;;;;;;;10.63;95.61;98611.09;5054150;28;20297;-63
2023/10/26 01:47:59;;;;;;;34.83;19.23;;;;;;;10.62;95.80;98614.56;5046838;28;20565;-63
2023/10/26 01:50:28;;;;;;;38.80;20.70;;;;;;;10.62;95.77;98618.88;5050872;28;20204;-61
2023/10/26 01:52:56;;;;;;;34.13;19.10;;;;;;;10.60;95.86;98612.94;5044327;28;20255;-63
2023/10/26 01:55:23;;;;;;;31.63;18.10;;;;;;;10.60;95.60;98616.38;5053107;28;20198;-64
2023/10/26 01:57:53;;;;;;;30.30;19.03;;;;;;;10.59;95.59;98606.94;5051097;28;20605;-63
2023/10/26 02:00:21;;;;;;;31.23;19.60;;;;;;;10.62;95.72;98606.84;5050094;28;20209;-62
2023/10/26 02:02:49;;;;;;;32.07;18.77;;;;;;;10.68;95.95;98607.50;5050418;28;20228;-61
2023/10/26 02:05:17;;;;;;;32.23;18.40;;;;;;;10.70;95.68;98603.16;5056407;28;20228;-61
2023/10/26 02:07:45;;;;;;;34.03;18.87;;;;;;;10.76;95.72;98608.09;5063017;28;20670;-60
2023/10/26 02:10:16;;;;;;;27.43;17.07;;;;;;;10.76;94.70;98595.22;5061035;28;20208;-65
2023/10/26 02:12:44;;;;;;;26.17;16.87;;;;;;;10.81;94.30;98593.31;5051130;28;20222;-65
2023/10/26 02:15:13;;;;;;;32.37;17.90;;;;;;;10.79;94.59;98595.13;5055360;28;20567;-64
2023/10/26 02:17:41;;;;;;;30.37;17.23;;;;;;;10.77;94.44;98596.88;5053701;28;20574;-61
2023/10/26 02:20:10;;;;;;;28.40;17.70;;;;;;;10.73;93.96;98600.47;5054208;28;20684;-63
2023/10/26 02:22:38;;;;;;;29.50;17.23;;;;;;;10.74;94.31;98597.81;5055425;28;20637;-61
2023/10/26 02:25:06;;;;;;;29.57;17.80;;;;;;;10.74;94.34;98604.72;5054806;28;20229;-60
2023/10/26 02:27:35;;;;;;;24.43;16.43;;;;;;;10.72;94.33;98599.63;5054259;28;20272;-64
2023/10/26 02:30:03;;;;;;;25.80;16.20;;;;;;;10.72;93.86;98604.78;5047811;28;20245;-62
2023/10/26 02:32:33;;;;;;;25.63;16.60;;;;;;;10.64;93.55;98602.47;5049742;28;20276;-62
2023/10/26 02:35:01;;;;;;;24.77;16.13;;;;;;;10.61;93.71;98602.59;5056747;28;20205;-63
2023/10/26 02:37:29;;;;;;;26.47;16.63;;;;;;;10.61;94.15;98599.19;5058244;28;20205;-63
2023/10/26 02:39:57;;;;;;;27.87;16.40;;;;;;;10.61;93.95;98597.44;5066601;28;20561;-62
2023/10/26 02:42:26;;;;;;;25.43;16.67;;;;;;;10.58;93.71;98602.69;5058043;28;20213;-61
2023/10/26 02:44:54;;;;;;;25.37;15.93;;;;;;;10.55;93.77;98596.81;5061895;28;20684;-60
2023/10/26 02:47:23;;;;;;;25.07;16.07;;;;;;;10.49;93.87;98590.13;5054521;28;20206;-65
2023/10/26 02:49:52;;;;;;;27.07;16.73;;;;;;;10.49;94.23;98592.69;5052446;28;20202;-63
2023/10/26 02:52:22;;;;;;;25.33;16.90;;;;;;;10.43;93.83;98586.94;5053852;28;20367;-60
2023/10/26 02:54:51;;;;;;;25.37;16.13;;;;;;;10.40;93.93;98590.44;5057082;28;20289;-60
2023/10/26 02:57:19;;;;;;;26.70;15.87;;;;;;;10.36;93.80;98579.41;5059290;28;20225;-62
2023/10/26 02:59:46;;;;;;;26.33;16.13;;;;;;;10.36;93.98;98596.59;5061209;28;20653;-61
2023/10/26 03:02:14;;;;;;;25.93;16.33;;;;;;;10.35;93.84;98589.78;5058540;28;20689;-62
2023/10/26 03:04:42;;;;;;;27.50;16.50;;;;;;;10.29;93.93;98592.53;5066115;28;20205;-61
2023/10/26 03:07:12;;;;;;;23.03;15.40;;;;;;;10.27;93.78;98594.31;5055935;28;20206;-59
2023/10/26 03:09:40;;;;;;;24.50;15.57;;;;;;;10.23;93.69;98590.13;5051002;28;20210;-68
2023/10/26 03:12:09;;;;;;;26.67;16.70;;;;;;;10.19;93.65;98581.69;5054760;28;20241;-69
2023/10/26 03:14:37;;;;;;;25.77;17.10;;;;;;;10.15;93.26;98580.94;5055093;28;20210;-69
2023/10/26 03:17:05;;;;;;;24.30;16.03;;;;;;;10.14;93.55;98581.84;5050891;28;20238;-70
2023/10/26 03:19:33;;;;;;;27.43;16.40;;;;;;;10.10;93.62;98574.28;5055160;28;20208;-68
2023/10/26 03:22:01;;;;;;;25.27;16.67;;;;;;;10.08;93.57;98574.31;5060451;28;20285;-67
2023/10/26 03:24:30;;;;;;;23.77;16.07;;;;;;;10.07;93.56;98572.63;5055110;28;20198;-67
2023/10/26 03:26:58;;;;;;;24.53;16.60;;;;;;;10.03;93.64;98578.78;5051261;28;20268;-66
2023/10/26 03:29:26;;;;;;;26.73;16.73;;;;;;;10.01;93.88;98580.53;5044295;28;20198;-68
2023/10/26 03:31:54;;;;;;;24.30;16.70;;;;;;;10.01;94.07;98577.97;5052923;28;20418;-68
2023/10/26 03:34:22;;;;;;;24.13;15.47;;;;;;;10.04;94.39;98570.16;5047576;28;20282;-69
2023/10/26 03:36:50;;;;;;;27.70;16.93;;;;;;;10.08;94.10;98569.16;5061953;28;20229;-68
2023/10/26 03:39:20;;;;;;;24.53;17.67;;;;;;;10.08;93.74;98566.59;5053896;28;20202;-66
2023/10/26 03:41:50;;;;;;;24.00;16.10;;;;;;;10.07;93.45;98566.66;5059628;28;20205;-68
2023/10/26 03:44:18;;;;;;;26.07;16.20;;;;;;;10.05;93.54;98555.56;5055122;28;20214;-69
2023/10/26 03:46:46;;;;;;;27.53;17.23;;;;;;;10.04;92.99;98559.03;5044859;28;20209;-69
2023/10/26 03:49:14;;;;;;;23.27;16.40;;;;;;;9.98;92.90;98556.66;5054890;28;20232;-67
2023/10/26 03:51:42;;;;;;;20.77;15.33;;;;;;;9.93;93.17;98552.50;5052156;28;20297;-67
2023/10/26 03:54:10;;;;;;;23.87;16.23;;;;;;;9.92;93.50;98550.00;5053165;28;20202;-68
2023/10/26 03:56:38;;;;;;;22.33;15.80;;;;;;;9.92;93.43;98542.28;5067457;28;20201;-67
2023/10/26 03:59:07;;;;;;;21.10;14.77;;;;;;;9.93;92.98;98544.78;5053936;28;20555;-66
2023/10/26 04:01:36;;;;;;;22.17;15.33;;;;;;;9.90;92.50;98536.31;5043126;28;20669;-66
2023/10/26 04:04:04;;;;;;;20.27;14.53;;;;;;;9.88;92.96;98540.69;5052296;28;20235;-68
2023/10/26 04:06:32;;;;;;;21.53;15.63;;;;;;;9.85;93.07;98533.06;5051053;28;20198;-67
2023/10/26 04:09:00;;;;;;;21.70;15.10;;;;;;;9.83;92.76;98525.41;5053606;28;20202;-67
2023/10/26 04:11:28;;;;;;;20.33;14.93;;;;;;;9.79;92.62;98522.97;5049010;28;20830;-68
2023/10/26 04:13:57;;;;;;;24.43;16.23;;;;;;;9.77;92.81;98522.19;5051111;28;20248;-67
2023/10/26 04:16:27;;;;;;;19.67;14.00;;;;;;;9.77;92.83;98514.47;5053972;28;20236;-67
2023/10/26 04:18:55;;;;;;;21.67;14.73;;;;;;;9.77;92.57;98520.47;5046726;28;20771;-67
2023/10/26 04:21:23;;;;;;;21.00;13.90;;;;;;;9.76;92.43;98515.38;5050074;28;20572;-66
2023/10/26 04:23:51;;;;;;;20.33;15.23;;;;;;;9.74;92.52;98506.84;5051231;28;20681;-65
2023/10/26 04:26:21;;;;;;;20.53;15.07;;;;;;;9.72;92.02;98500.91;5051184;28;20213;-66
2023/10/26 04:28:49;;;;;;;21.60;15.00;;;;;;;9.71;92.62;98494.94;5052092;28;20213;-65
2023/10/26 04:31:19;;;;;;;19.53;14.80;;;;;;;9.73;92.51;98497.47;5055075;28;20209;-64
2023/10/26 04:33:49;;;;;;;20.63;14.80;;;;;;;9.73;92.60;98487.19;5053907;28;20758;-65
2023/10/26 04:36:17;;;;;;;19.10;13.40;;;;;;;9.75;92.44;98490.53;5053960;28;20202;-65
2023/10/26 04:38:45;;;;;;;22.97;14.87;;;;;;;9.78;91.87;98487.84;5049902;28;20680;-65
2023/10/26 04:41:13;;;;;;;24.63;14.10;;;;;;;9.76;91.75;98494.81;5051416;28;20202;-66
2023/10/26 04:43:41;;;;;;;21.07;15.47;;;;;;;9.74;91.96;98492.25;5055047;28;20309;-64
2023/10/26 04:46:09;;;;;;;21.83;15.47;;;;;;;9.75;91.92;98491.38;5052135;28;20204;-67
2023/10/26 04:48:37;;;;;;;22.40;15.00;;;;;;;9.76;92.29;98497.38;5065272;28;20220;-66
2023/10/26 04:51:06;;;;;;;21.27;15.40;;;;;;;9.78;91.83;98495.56;5052527;28;20212;-66
2023/10/26 04:53:34;;;;;;;18.80;14.07;;;;;;;9.81;91.70;98490.34;5054747;28;20546;-64
2023/10/26 04:56:02;;;;;;;22.83;14.47;;;;;;;9.81;91.51;98490.34;5050184;28;20634;-64
2023/10/26 04:58:31;;;;;;;21.27;15.30;;;;;;;9.82;91.51;98486.88;5057032;28;20656;-66
2023/10/26 05:00:59;;;;;;;20.47;14.33;;;;;;;9.84;91.97;98479.94;5054026;28;20198;-65
2023/10/26 05:03:27;;;;;;;22.40;15.10;;;;;;;9.88;91.92;98481.53;5044628;28;20229;-65
2023/10/26 05:05:56;;;;;;;19.43;15.00;;;;;;;9.92;91.84;98485.66;5044228;28;20296;-64
2023/10/26 05:08:27;;;;;;;22.23;15.13;;;;;;;9.93;91.26;98480.47;5046308;28;20209;-64
2023/10/26 05:10:55;;;;;;;21.43;14.97;;;;;;;9.95;91.41;98483.00;5044970;28;20322;-65
2023/10/26 05:13:25;;;;;;;19.90;13.97;;;;;;;9.97;91.23;98475.22;5051532;28;20713;-63
2023/10/26 05:15:52;;;;;;;19.93;13.33;;;;;;;10.02;91.31;98475.91;5049654;28;20896;-64
2023/10/26 05:18:21;;;;;;;22.53;16.10;;;;;;;10.05;90.85;98481.78;5054119;28;20659;-63
2023/10/26 05:20:49;;;;;;;22.37;15.33;;;;;;;10.08;90.83;98486.81;5052694;28;20202;-64
2023/10/26 05:23:17;;;;;;;22.60;16.17;;;;;;;10.12;90.65;98478.09;5053873;28;20220;-64
2023/10/26 05:25:48;;;;;;;22.67;14.23;;;;;;;10.17;90.70;98480.53;5043909;28;20206;-63
2023/10/26 05:28:16;;;;;;;21.00;14.10;;;;;;;10.14;90.52;98476.31;5043590;28;20213;-62
2023/10/26 05:30:44;;;;;;;23.27;14.90;;;;;;;10.24;90.59;98483.72;5048964;28;20260;-65
2023/10/26 05:33:12;;;;;;;21.87;15.90;;;;;;;10.27;90.31;98479.34;5049466;28;20252;-65
2023/10/26 05:35:40;;;;;;;18.83;14.57;;;;;;;10.31;90.22;98485.19;5051493;28;20661;-65
2023/10/26 05:38:09;;;;;;;21.80;15.33;;;;;;;10.33;89.84;98483.41;5051410;28;20206;-65
2023/10/26 05:40:37;;;;;;;24.60;14.50;;;;;;;10.32;89.99;98476.59;5048699;28;20219;-63
2023/10/26 05:43:06;;;;;;;19.57;14.87;;;;;;;10.32;89.59;98472.28;5058371;28;20264;-64
2023/10/26 05:45:39;;;;;;;19.87;13.90;;;;;;;10.29;89.69;98472.38;5051574;28;20221;-70
2023/10/26 05:48:09;;;;;;;19.67;15.23;;;;;;;10.31;89.84;98474.91;5055166;28;20217;-71
2023/10/26 05:50:41;;;;;;;22.13;15.10;;;;;;;10.34;90.00;98479.94;5051282;28;20660;-71
2023/10/26 05:53:09;;;;;;;21.47;14.57;;;;;;;10.37;89.92;98479.84;5060333;28;20210;-72
2023/10/26 05:55:39;;;;;;;22.03;15.27;;;;;;;10.38;90.30;98473.78;5061054;28;20205;-69
2023/10/26 05:58:09;;;;;;;23.13;15.33;;;;;;;10.43;90.19;98484.78;5054890;28;20198;-69
2023/10/26 06:00:38;;;;;;;22.13;15.30;;;;;;;10.46;89.80;98479.53;5059000;28;20296;-71
2023/10/26 06:03:07;;;;;;;19.13;14.37;;;;;;;10.49;90.05;98484.53;5048146;28;20288;-73
2023/10/26 06:05:35;;;;;;;23.07;14.63;;;;;;;10.55;89.91;98486.06;5052484;28;20260;-70
2023/10/26 06:08:03;;;;;;;22.13;14.97;;;;;;;10.57;89.12;98482.53;5054948;28;20649;-67
2023/10/26 06:10:31;;;;;;;19.60;14.17;;;;;;;10.58;89.49;98484.22;5056547;28;20212;-72
2023/10/26 06:12:59;;;;;;;18.27;14.67;;;;;;;10.57;88.92;98490.28;5057123;28;20209;-71
2023/10/26 06:15:28;;;;;;;16.33;12.97;;;;;;;10.56;88.98;98491.16;5060199;28;20197;-72
2023/10/26 06:17:56;;;;;;;16.80;13.43;;;;;;;10.55;88.63;98488.63;5051712;28;20210;-72
2023/10/26 06:20:28;;;;;;;19.73;13.43;;;;;;;10.55;88.66;98479.16;5050902;28;20198;-67
2023/10/26 06:22:57;;;;;;;19.07;14.47;;;;;;;10.52;88.67;98479.28;5060286;28;20209;-71
2023/10/26 06:25:28;;;;;;;18.10;13.67;;;;;;;10.55;88.75;98476.59;5051940;28;20708;-74
2023/10/26 06:27:56;;;;;;;17.30;13.30;;;;;;;10.52;88.86;98474.13;5057470;28;20201;-72
2023/10/26 06:30:25;;;;;;;18.83;14.13;;;;;;;10.51;88.97;98475.03;5057750;28;20206;-73
2023/10/26 06:32:55;;;;;;;18.00;13.77;;;;;;;10.52;88.85;98476.69;5065051;28;20198;-69
2023/10/26 06:35:23;;;;;;;18.63;14.63;;;;;;;10.50;88.78;98469.94;5054315;28;20713;-71
2023/10/26 06:37:51;;;;;;;16.37;12.80;;;;;;;10.50;89.35;98468.22;5055313;28;20681;-71
2023/10/26 06:40:19;;;;;;;18.97;14.33;;;;;;;10.53;88.96;98468.09;5051347;28;20664;-63
2023/10/26 06:42:47;;;;;;;18.73;14.80;;;;;;;10.56;89.48;98467.97;5054140;28;20667;-61
2023/10/26 06:45:15;;;;;;;17.97;13.90;;;;;;;10.63;88.89;98473.75;5044960;28;20645;-63
2023/10/26 06:47:43;;;;;;;19.13;13.23;;;;;;;10.66;88.74;98458.16;5059756;28;20194;-61
2023/10/26 06:50:13;;;;;;;16.83;13.17;;;;;;;10.71;89.05;98458.81;5046778;28;20239;-64
2023/10/26 06:52:41;;;;;;;17.87;13.27;;;;;;;10.70;88.36;98448.59;5054250;28;20252;-61
2023/10/26 06:55:14;;;;;;;20.57;13.60;;;;;;;10.68;87.90;98453.81;5047674;28;20198;-63
2023/10/26 06:57:57;;;;;;;21.47;14.67;;;;;;;10.72;88.97;98439.09;5055079;28;20210;-65
2023/10/26 07:00:25;;;;;;;20.50;14.13;;;;;;;10.74;88.58;98439.84;5049619;28;20209;-60
2023/10/26 07:02:53;;;;;;;23.87;15.37;;;;;;;10.73;88.19;98430.44;5055199;28;20665;-62
2023/10/26 07:05:23;;;;;;;18.23;14.17;;;;;;;10.77;88.12;98432.84;5048916;28;20222;-63
2023/10/26 07:07:51;;;;;;;21.53;14.57;;;;;;;10.75;88.80;98431.22;5052148;28;20203;-63
2023/10/26 07:10:19;;;;;;;21.13;14.97;;;;;;;10.74;88.62;98432.97;5055898;28;20206;-61
2023/10/26 07:12:47;;;;;;;17.03;13.53;;;;;;;10.70;88.42;98441.69;5057588;28;20569;-63
2023/10/26 07:15:16;;;;;;;17.17;14.40;;;;;;;10.71;88.54;98445.94;5053541;28;20682;-63
2023/10/26 07:17:44;;;;;;;20.77;15.77;;;;;;;10.76;88.48;98440.66;5049127;28;20681;-61
2023/10/26 07:20:13;;;;;;;16.40;13.53;;;;;;;10.82;88.20;98435.25;5052006;28;20651;-62
2023/10/26 07:22:45;;;;;;;19.27;14.80;;;;;;;10.82;87.85;98441.22;5059162;28;20286;-62
2023/10/26 07:25:13;;;;;;;15.40;13.30;;;;;;;10.82;87.48;98440.38;5046456;28;20214;-62
2023/10/26 07:27:41;;;;;;;20.03;14.60;;;;;;;10.80;87.82;98442.19;5053118;28;20570;-62
2023/10/26 07:30:11;;;;;;;19.23;14.27;;;;;;;10.77;87.50;98438.00;5050811;28;20220;-61
2023/10/26 07:32:39;;;;;;;20.87;14.87;;;;;;;10.77;87.82;98439.75;5046932;28;20206;-60
2023/10/26 07:35:08;;;;;;;16.57;13.83;;;;;;;10.82;88.08;98440.38;5050428;28;20225;-61
2023/10/26 07:37:37;;;;;;;18.00;14.10;;;;;;;10.82;88.08;98430.91;5050352;28;20288;-62
2023/10/26 07:40:09;;;;;;;18.33;14.00;;;;;;;10.84;88.37;98425.72;5050134;28;20953;-63
2023/10/26 07:42:56;;;;;;;22.33;15.00;;;;;;;10.86;87.43;98435.09;5045599;28;20210;-62
2023/10/26 07:45:25;;;;;;;19.50;14.73;;;;;;;10.83;87.77;98431.78;5053514;28;20432;-62
2023/10/26 07:47:55;;;;;;;17.37;14.70;;;;;;;10.83;87.60;98431.78;5054373;28;20248;-62
2023/10/26 07:50:28;;;;;;;17.07;13.60;;;;;;;10.81;88.00;98420.69;5056630;28;20586;-62
2023/10/26 07:52:57;;;;;;;17.63;14.90;;;;;;;10.83;87.97;98424.88;5054281;28;20352;-62
2023/10/26 07:55:26;;;;;;;18.23;15.13;;;;;;;10.86;87.89;98418.75;5052725;28;20205;-61
2023/10/26 07:57:54;;;;;;;16.87;14.37;;;;;;;10.93;88.28;98416.78;5050790;28;20213;-67
2023/10/26 08:00:22;;;;;;;18.27;15.03;;;;;;;11.03;88.12;98407.81;5051119;28;20230;-63
2023/10/26 08:02:50;;;;;;;16.40;14.40;;;;;;;11.07;87.52;98404.19;5052199;28;20206;-61
2023/10/26 08:05:19;;;;;;;18.90;15.73;;;;;;;11.10;86.72;98409.25;5048121;28;20248;-62
2023/10/26 08:07:47;;;;;;;19.10;14.90;;;;;;;11.09;87.00;98403.25;5043044;28;20212;-61
2023/10/26 08:10:15;;;;;;;18.67;15.23;;;;;;;11.16;87.21;98409.00;5049577;28;20210;-63
2023/10/26 08:12:45;;;;;;;19.50;15.77;;;;;;;11.23;87.33;98402.69;5052935;28;20206;-61
2023/10/26 08:15:13;;;;;;;17.60;14.63;;;;;;;11.25;86.24;98407.78;5057335;28;20620;-60
2023/10/26 08:18:01;;;;;;;18.83;14.93;;;;;;;11.32;86.76;98410.03;5051926;28;20214;-59
2023/10/26 08:20:29;;;;;;;18.33;14.50;;;;;;;11.40;86.90;98412.31;5057639;28;20197;-61
2023/10/26 08:22:57;;;;;;;18.73;15.33;;;;;;;11.45;86.05;98410.41;5050135;28;20247;-63
2023/10/26 08:25:25;;;;;;;20.67;14.87;;;;;;;11.46;85.12;98411.22;5040401;28;20260;-61
2023/10/26 08:27:54;;;;;;;15.70;14.00;;;;;;;11.45;85.15;98405.25;5046581;28;20245;-61
2023/10/26 08:30:22;;;;;;;18.67;14.40;;;;;;;11.41;85.02;98402.81;5050677;28;20210;-62
2023/10/26 08:33:43;;;;;;;17.33;15.43;;;;;;;11.40;84.83;98406.31;5050061;28;20208;-60
2023/10/26 08:36:21;;;;;;;19.08;16.92;;;;;;;11.32;84.79;98406.63;5050231;28;20447;-65
2023/10/26 08:38:49;;;;;;;21.73;15.83;;;;;;;11.22;85.30;98395.00;5040152;28;20202;-62
2023/10/26 08:41:18;;;;;;;21.60;15.97;;;;;;;11.17;85.85;98389.22;5044999;28;20349;-61
2023/10/26 08:43:47;;;;;;;19.60;16.00;;;;;;;11.12;86.49;98385.09;5049835;28;20202;-61
2023/10/26 08:46:17;;;;;;;18.10;15.53;;;;;;;11.13;87.02;98379.03;5049632;28;20218;-58
2023/10/26 08:48:46;;;;;;;20.20;15.53;;;;;;;11.12;86.39;98373.94;5052491;28;20205;-63
2023/10/26 08:51:14;;;;;;;17.90;14.23;;;;;;;11.06;86.66;98376.75;5050465;28;20228;-59
2023/10/26 08:53:43;;;;;;;18.17;15.57;;;;;;;11.06;87.67;98379.34;5052477;28;20534;-60
2023/10/26 08:56:11;;;;;;;17.70;14.70;;;;;;;11.06;87.31;98371.59;5042752;28;20194;-62
2023/10/26 08:58:39;;;;;;;19.23;15.03;;;;;;;11.04;87.37;98368.22;5056694;28;20272;-65
2023/10/26 09:01:09;;;;;;;17.87;14.23;;;;;;;11.03;87.47;98371.72;5046621;28;20696;-65
2023/10/26 09:03:37;;;;;;;19.50;14.23;;;;;;;10.97;87.79;98370.25;5055146;28;20216;-63
2023/10/26 09:06:06;;;;;;;18.57;15.03;;;;;;;11.00;88.22;98366.69;5050327;28;20763;-62
2023/10/26 09:08:34;;;;;;;21.27;16.43;;;;;;;11.06;88.61;98362.13;5043995;28;20201;-63
2023/10/26 09:11:10;;;;;;;18.13;14.50;;;;;;;11.11;88.14;98359.34;5051364;28;20202;-65
2023/10/26 09:13:38;;;;;;;17.83;14.23;;;;;;;11.10;87.88;98350.78;5044344;28;20562;-63
2023/10/26 09:16:06;;;;;;;16.53;13.30;;;;;;;11.10;88.20;98353.38;5044951;28;20642;-62
2023/10/26 09:18:36;;;;;;;19.30;15.00;;;;;;;11.13;88.49;98360.97;5037969;28;20858;-65
2023/10/26 09:21:06;;;;;;;18.40;14.53;;;;;;;11.18;88.14;98350.47;5052019;28;20210;-65
2023/10/26 09:23:36;;;;;;;18.20;14.33;;;;;;;11.13;87.88;98352.41;5048126;28;20591;-64
2023/10/26 09:26:07;;;;;;;19.50;14.17;;;;;;;11.12;88.62;98345.59;5049729;28;20220;-63
2023/10/26 09:28:49;;;;;;;19.00;13.97;;;;;;;11.10;88.74;98347.38;5052291;28;20206;-64
2023/10/26 09:31:18;;;;;;;16.43;13.07;;;;;;;11.10;88.57;98352.53;5054463;28;20213;-63
2023/10/26 09:33:48;;;;;;;15.60;12.87;;;;;;;11.03;88.39;98345.94;5047996;28;20645;-64
2023/10/26 09:36:17;;;;;;;19.87;14.37;;;;;;;10.95;88.77;98350.59;5050208;28;20641;-64
2023/10/26 09:38:47;;;;;;;19.13;14.40;;;;;;;10.95;89.75;98354.00;5055196;28;20972;-64
2023/10/26 09:41:18;;;;;;;17.13;14.17;;;;;;;10.97;90.40;98361.66;5048932;28;21882;-63
2023/10/26 09:43:47;;;;;;;17.10;13.67;;;;;;;11.00;90.83;98357.22;5055959;28;20658;-63
2023/10/26 09:46:17;;;;;;;15.90;13.40;;;;;;;11.04;91.03;98348.44;5055495;28;20245;-64
2023/10/26 09:48:47;;;;;;;16.73;13.67;;;;;;;11.11;90.93;98344.72;5046577;28;20724;-65
2023/10/26 09:51:15;;;;;;;15.80;13.43;;;;;;;11.12;90.58;98354.16;5054556;28;20205;-65
2023/10/26 09:53:45;;;;;;;16.47;13.07;;;;;;;11.13;91.14;98337.78;5047528;28;20233;-65
2023/10/26 09:56:21;;;;;;;15.57;13.33;;;;;;;11.11;90.85;98329.25;5052509;28;20198;-63
2023/10/26 09:58:51;;;;;;;16.97;12.83;;;;;;;11.06;90.97;98322.63;5044556;28;20556;-65
2023/10/26 10:01:34;;;;;;;16.03;13.40;;;;;;;10.98;91.86;98322.94;5051606;28;20205;-65
2023/10/26 10:04:06;;;;;;;15.77;12.87;;;;;;;11.00;92.36;98310.81;5050272;28;20202;-67
2023/10/26 10:06:53;;;;;;;14.37;12.00;;;;;;;11.01;92.92;98301.34;5048246;28;20214;-64
2023/10/26 10:09:22;;;;;;;15.40;12.53;;;;;;;11.04;92.36;98301.22;5048662;28;20206;-64
2023/10/26 10:12:31;;;;;;;14.50;12.03;;;;;;;11.08;92.64;98306.22;5054867;28;20316;-65
2023/10/26 10:15:00;;;;;;;14.37;12.63;;;;;;;11.15;92.53;98303.38;5049647;28;20292;-66
2023/10/26 10:18:03;;;;;;;14.23;12.20;;;;;;;11.22;92.58;98291.88;5051296;28;20202;-65
2023/10/26 10:20:34;;;;;;;14.73;12.00;;;;;;;11.26;91.90;98290.84;5048810;28;20555;-67
2023/10/26 10:23:03;;;;;;;13.87;12.03;;;;;;;11.25;91.62;98291.75;5051832;28;20221;-68
2023/10/26 10:26:01;;;;;;;14.30;12.43;;;;;;;11.24;91.35;98282.38;5060023;28;20215;-65
2023/10/26 10:28:54;;;;;;;18.13;12.57;;;;;;;11.18;91.41;98282.63;5051983;28;20209;-65
2023/10/26 10:31:23;;;;;;;14.10;11.97;;;;;;;11.16;92.08;98279.25;5052029;28;20209;-66
2023/10/26 10:34:02;;;;;;;14.90;12.70;;;;;;;11.17;92.33;98286.94;5050363;28;20699;-66
2023/10/26 10:37:10;;;;;;;15.17;12.43;;;;;;;11.19;92.12;98284.28;5051702;28;20202;-65
2023/10/26 10:39:39;;;;;;;18.63;14.67;;;;;;;11.21;92.12;98279.91;5054245;28;20210;-66
2023/10/26 10:42:11;;;;;;;16.07;12.20;;;;;;;11.24;92.33;98283.19;5056749;28;20202;-66
2023/10/26 10:44:41;;;;;;;20.27;13.97;;;;;;;11.27;91.33;98285.66;5059128;28;20653;-66
2023/10/26 10:47:10;;;;;;;17.00;13.17;;;;;;;11.26;91.69;98280.53;5045208;28;20316;-65
2023/10/26 10:49:38;;;;;;;15.53;13.47;;;;;;;11.27;91.76;98282.25;5054852;28;20198;-67
2023/10/26 10:52:15;;;;;;;16.50;12.53;;;;;;;11.27;91.46;98283.06;5053380;28;20640;-66
2023/10/26 10:54:49;;;;;;;17.30;13.13;;;;;;;11.32;91.57;98280.28;5053842;28;20193;-66
2023/10/26 10:57:29;;;;;;;13.80;11.93;;;;;;;11.31;91.16;98278.63;5055419;28;20204;-66
2023/10/26 10:59:57;;;;;;;16.97;14.00;;;;;;;11.36;91.32;98281.84;5052678;28;20734;-66
2023/10/26 11:02:25;;;;;;;15.77;13.03;;;;;;;11.41;91.21;98266.97;5044387;28;20539;-68
2023/10/26 11:04:54;;;;;;;17.47;12.33;;;;;;;11.40;90.54;98273.06;5052933;28;20198;-66
2023/10/26 11:07:37;;;;;;;13.93;12.40;;;;;;;11.37;90.77;98268.03;5060039;28;20300;-66
2023/10/26 11:10:06;;;;;;;16.03;12.70;;;;;;;11.39;90.92;98270.56;5049110;28;20198;-66
2023/10/26 11:12:34;;;;;;;14.33;12.73;;;;;;;11.38;91.09;98274.88;5045346;28;20206;-66
2023/10/26 11:15:03;;;;;;;16.00;12.07;;;;;;;11.40;91.22;98267.91;5045263;28;20210;-70
2023/10/26 11:17:32;;;;;;;16.80;12.60;;;;;;;11.41;90.92;98266.97;5049121;28;20236;-65
2023/10/26 11:20:00;;;;;;;15.87;12.87;;;;;;;11.35;90.42;98264.69;5049868;28;20220;-73
2023/10/26 11:22:28;;;;;;;15.17;12.13;;;;;;;11.32;91.03;98264.81;5051181;28;20564;-73
2023/10/26 11:24:58;;;;;;;14.23;12.10;;;;;;;11.30;91.58;98254.59;5048903;28;20209;-68
2023/10/26 11:27:25;;;;;;;15.67;13.57;;;;;;;11.31;92.04;98258.84;5058389;28;20241;-74
2023/10/26 11:30:03;;;;;;;17.47;13.70;;;;;;;11.35;92.18;98251.81;5051608;28;20209;-74
2023/10/26 11:32:32;;;;;;;15.43;12.83;;;;;;;11.37;91.95;98262.88;5055145;28;20202;-72